Time;durP1;ratioP1;P1;durP2;ratioP2;P2;SDS_P1;SDS_P2;PMS_P1;PMS_P2;Temp;Humidity;BMP_temperature;BMP_pressure;BME280_temperature;BME280_humidity;BME280_pressure;Samples;Min_cycle;Max_cycle;Signal;HPM_P1;HPM_P2
2023/04/07 00:00:05;;;;;;;27.55;24.67;;;;;;;;;;5031203;28;20095;-61
2023/04/07 00:02:31;;;;;;;27.67;24.77;;;;;;;;;;5030393;28;20078;-62
2023/04/07 00:04:58;;;;;;;28.08;25.10;;;;;;;;;;5030500;28;20022;-61
2023/04/07 00:07:24;;;;;;;28.85;25.90;;;;;;;;;;5031028;28;20028;-58
2023/04/07 00:09:50;;;;;;;29.48;25.55;;;;;;;;;;5030928;28;20022;-61
2023/04/07 00:12:16;;;;;;;27.73;24.73;;;;;;;;;;5031313;28;20056;-62
2023/04/07 00:14:42;;;;;;;27.73;24.73;;;;;;;;;;5030584;28;20100;-60
2023/04/07 00:17:08;;;;;;;28.63;25.67;;;;;;;;;;5030453;28;20124;-62
2023/04/07 00:19:34;;;;;;;28.30;25.40;;;;;;;;;;5013289;28;20032;-60
2023/04/07 00:22:00;;;;;;;27.13;24.27;;;;;;;;;;5013221;28;20171;-61
2023/04/07 00:24:26;;;;;;;27.70;24.58;;;;;;;;;;5012551;28;20105;-59
2023/04/07 00:26:52;;;;;;;27.92;23.80;;;;;;;;;;5013194;28;20041;-59
2023/04/07 00:29:18;;;;;;;26.95;24.15;;;;;;;;;;5030296;28;20453;-58
2023/04/07 00:31:44;;;;;;;26.38;23.58;;;;;;;;;;5030494;28;20033;-61
2023/04/07 00:34:11;;;;;;;27.50;24.67;;;;;;;;;;5012135;28;20032;-61
2023/04/07 00:36:37;;;;;;;28.50;25.60;;;;;;;;;;5030675;28;20018;-60
2023/04/07 00:39:03;;;;;;;28.23;25.30;;;;;;;;;;5030760;28;20052;-61
2023/04/07 00:41:29;;;;;;;27.27;24.58;;;;;;;;;;5030464;28;20451;-60
2023/04/07 00:43:54;;;;;;;27.25;24.45;;;;;;;;;;5011610;28;20108;-61
2023/04/07 00:46:23;;;;;;;27.60;24.80;;;;;;;;;;5030743;28;20052;-61
2023/04/07 00:48:49;;;;;;;27.95;24.95;;;;;;;;;;5030710;28;20025;-62
2023/04/07 00:51:15;;;;;;;27.20;24.45;;;;;;;;;;5030469;28;20053;-61
2023/04/07 00:53:42;;;;;;;27.65;24.85;;;;;;;;;;5012136;28;20017;-61
2023/04/07 00:56:08;;;;;;;28.58;25.52;;;;;;;;;;4992670;28;20052;-60
2023/04/07 00:58:34;;;;;;;28.35;25.35;;;;;;;;;;5026916;28;20113;-61
2023/04/07 01:01:00;;;;;;;28.70;25.73;;;;;;;;;;5030383;28;20036;-62
2023/04/07 01:03:31;;;;;;;28.30;25.50;;;;;;;;;;5029413;28;20033;-60
2023/04/07 01:06:01;;;;;;;27.33;24.45;;;;;;;;;;5012779;28;20053;-61
2023/04/07 01:08:33;;;;;;;28.15;25.25;;;;;;;;;;5029822;28;20083;-61
2023/04/07 01:11:02;;;;;;;29.70;26.60;;;;;;;;;;5029990;28;20036;-61
2023/04/07 01:13:39;;;;;;;28.30;25.33;;;;;;;;;;5012046;28;20021;-60
2023/04/07 01:16:09;;;;;;;27.08;24.27;;;;;;;;;;5032934;28;20043;-61
2023/04/07 01:18:36;;;;;;;27.80;24.90;;;;;;;;;;5016373;28;20037;-62
2023/04/07 01:21:04;;;;;;;27.92;25.00;;;;;;;;;;5016305;28;20107;-59
2023/04/07 01:23:42;;;;;;;29.23;25.92;;;;;;;;;;5033269;28;20034;-61
2023/04/07 01:26:41;;;;;;;26.45;23.75;;;;;;;;;;5034190;28;20025;-61
2023/04/07 01:29:27;;;;;;;28.25;25.35;;;;;;;;;;4989908;28;20453;-62
2023/04/07 01:31:55;;;;;;;27.98;25.02;;;;;;;;;;5033752;28;20040;-62
2023/04/07 01:34:21;;;;;;;27.00;24.25;;;;;;;;;;5032977;28;20037;-60
2023/04/07 01:36:48;;;;;;;26.50;23.67;;;;;;;;;;5015871;28;20033;-63
2023/04/07 01:39:15;;;;;;;26.67;23.98;;;;;;;;;;5015818;28;20030;-60
2023/04/07 01:41:41;;;;;;;26.80;24.00;;;;;;;;;;5034056;28;20032;-62
2023/04/07 01:44:08;;;;;;;26.20;23.50;;;;;;;;;;5033099;28;20026;-60
2023/04/07 01:46:34;;;;;;;26.83;24.02;;;;;;;;;;5016010;28;20482;-62
2023/04/07 01:49:01;;;;;;;26.63;23.92;;;;;;;;;;5033177;28;20040;-61
2023/04/07 01:51:28;;;;;;;26.98;24.08;;;;;;;;;;5033276;28;20100;-62
2023/04/07 01:53:54;;;;;;;26.92;24.23;;;;;;;;;;5033102;28;20026;-62
2023/04/07 01:56:20;;;;;;;26.23;23.55;;;;;;;;;;5033567;28;20502;-60
2023/04/07 01:58:46;;;;;;;27.33;24.52;;;;;;;;;;5033287;28;20038;-62
2023/04/07 02:01:13;;;;;;;27.83;24.92;;;;;;;;;;5015768;28;20379;-62
2023/04/07 02:03:58;;;;;;;26.77;23.98;;;;;;;;;;5014737;28;20026;-62
2023/04/07 02:06:27;;;;;;;28.08;24.25;;;;;;;;;;5015880;28;20062;-62
2023/04/07 02:08:55;;;;;;;26.50;23.90;;;;;;;;;;5033078;28;20484;-61
2023/04/07 02:11:21;;;;;;;26.58;23.88;;;;;;;;;;5033570;28;20028;-61
2023/04/07 02:13:48;;;;;;;27.20;24.40;;;;;;;;;;5032806;28;20025;-62
2023/04/07 02:16:15;;;;;;;27.02;24.33;;;;;;;;;;5033044;28;20025;-61
2023/04/07 02:18:42;;;;;;;27.10;24.40;;;;;;;;;;5032690;28;20033;-62
2023/04/07 02:21:10;;;;;;;27.02;24.23;;;;;;;;;;5032974;28;20064;-61
2023/04/07 02:23:36;;;;;;;27.40;24.33;;;;;;;;;;5032486;28;20522;-62
2023/04/07 02:26:02;;;;;;;27.38;24.55;;;;;;;;;;5014833;28;20132;-60
2023/04/07 02:28:28;;;;;;;26.60;23.92;;;;;;;;;;5015366;28;20116;-61
2023/04/07 02:30:54;;;;;;;26.58;23.77;;;;;;;;;;5032207;28;20428;-61
2023/04/07 02:33:20;;;;;;;27.20;24.30;;;;;;;;;;5014562;28;20044;-63
2023/04/07 02:35:46;;;;;;;27.50;24.63;;;;;;;;;;5015181;28;20041;-59
2023/04/07 02:38:12;;;;;;;27.52;24.63;;;;;;;;;;5032990;28;20025;-61
2023/04/07 02:40:38;;;;;;;27.33;24.42;;;;;;;;;;5032492;28;20109;-61
2023/04/07 02:43:04;;;;;;;27.05;24.33;;;;;;;;;;5032241;28;20334;-61
2023/04/07 02:45:31;;;;;;;28.13;25.27;;;;;;;;;;5032400;28;20034;-60
2023/04/07 02:47:57;;;;;;;27.77;24.98;;;;;;;;;;5014869;28;20033;-62
2023/04/07 02:50:24;;;;;;;27.02;24.13;;;;;;;;;;5014870;28;20116;-59
2023/04/07 02:52:50;;;;;;;27.55;24.75;;;;;;;;;;5032806;28;20466;-61
2023/04/07 02:55:17;;;;;;;27.13;24.38;;;;;;;;;;5014371;28;20033;-61
2023/04/07 02:57:43;;;;;;;26.98;24.27;;;;;;;;;;5032300;28;20031;-61
2023/04/07 03:00:09;;;;;;;28.05;25.33;;;;;;;;;;5032582;28;20072;-62
2023/04/07 03:02:35;;;;;;;27.77;24.92;;;;;;;;;;5014638;28;20029;-62
2023/04/07 03:05:03;;;;;;;28.02;25.23;;;;;;;;;;5031903;28;20099;-62
2023/04/07 03:07:30;;;;;;;27.50;24.70;;;;;;;;;;5032395;28;20128;-62
2023/04/07 03:09:56;;;;;;;27.70;24.98;;;;;;;;;;5032561;28;20497;-62
2023/04/07 03:12:22;;;;;;;27.27;24.48;;;;;;;;;;5014176;28;20078;-63
2023/04/07 03:14:48;;;;;;;29.23;26.33;;;;;;;;;;5031521;28;20491;-62
2023/04/07 03:17:14;;;;;;;27.95;24.98;;;;;;;;;;5032135;28;20017;-62
2023/04/07 03:19:40;;;;;;;27.38;24.58;;;;;;;;;;5032232;28;20036;-60
2023/04/07 03:22:06;;;;;;;27.95;25.15;;;;;;;;;;5032143;28;20129;-60
2023/04/07 03:24:32;;;;;;;27.95;24.95;;;;;;;;;;5013469;28;20078;-61
2023/04/07 03:26:58;;;;;;;27.30;24.55;;;;;;;;;;5031948;28;20079;-62
2023/04/07 03:29:24;;;;;;;27.02;24.27;;;;;;;;;;5031642;28;20079;-62
2023/04/07 03:31:50;;;;;;;26.80;24.08;;;;;;;;;;5031793;28;20486;-62
2023/04/07 03:34:16;;;;;;;26.73;24.02;;;;;;;;;;5030124;28;20030;-62
2023/04/07 03:36:42;;;;;;;26.80;23.98;;;;;;;;;;5031787;28;20056;-61
2023/04/07 03:39:09;;;;;;;25.98;23.38;;;;;;;;;;5030495;28;20025;-61
2023/04/07 03:41:35;;;;;;;26.50;23.92;;;;;;;;;;5031368;28;20045;-62
2023/04/07 03:44:01;;;;;;;26.23;23.63;;;;;;;;;;5030751;28;20101;-61
2023/04/07 03:46:27;;;;;;;26.25;23.58;;;;;;;;;;5013411;28;20037;-58
2023/04/07 03:48:53;;;;;;;27.55;24.75;;;;;;;;;;5031247;28;20470;-60
2023/04/07 03:51:18;;;;;;;26.13;23.48;;;;;;;;;;5031363;28;20033;-61
2023/04/07 03:53:45;;;;;;;27.00;24.23;;;;;;;;;;5030815;28;20029;-62
2023/04/07 03:56:11;;;;;;;27.20;23.85;;;;;;;;;;5031092;28;20052;-60
2023/04/07 03:58:37;;;;;;;25.98;23.38;;;;;;;;;;5031697;28;20069;-62
2023/04/07 04:01:03;;;;;;;26.75;23.75;;;;;;;;;;5013850;28;20565;-62
2023/04/07 04:03:29;;;;;;;27.02;24.38;;;;;;;;;;5030635;28;20056;-60
2023/04/07 04:05:55;;;;;;;27.05;24.35;;;;;;;;;;5031098;28;20151;-61
2023/04/07 04:08:21;;;;;;;27.58;24.73;;;;;;;;;;5030805;28;20031;-62
2023/04/07 04:10:47;;;;;;;27.48;24.58;;;;;;;;;;5030986;28;20037;-61
2023/04/07 04:13:13;;;;;;;27.60;24.90;;;;;;;;;;5030074;28;20034;-62
2023/04/07 04:15:39;;;;;;;27.23;24.42;;;;;;;;;;5013438;28;20017;-61
2023/04/07 04:18:05;;;;;;;27.48;24.80;;;;;;;;;;5030861;28;20061;-61
2023/04/07 04:20:31;;;;;;;29.65;26.83;;;;;;;;;;5031044;28;20464;-61
2023/04/07 04:22:57;;;;;;;27.52;24.83;;;;;;;;;;5030934;28;20083;-61
2023/04/07 04:25:23;;;;;;;29.02;26.13;;;;;;;;;;5030330;28;20101;-64
2023/04/07 04:27:49;;;;;;;27.65;25.05;;;;;;;;;;5012823;28;20064;-60
2023/04/07 04:30:15;;;;;;;27.60;25.00;;;;;;;;;;5030475;28;20056;-61
2023/04/07 04:32:41;;;;;;;27.75;25.05;;;;;;;;;;5028845;28;20053;-62
2023/04/07 04:35:08;;;;;;;28.17;25.23;;;;;;;;;;5012705;28;20028;-59
2023/04/07 04:37:34;;;;;;;27.90;25.20;;;;;;;;;;5030893;28;20035;-61
2023/04/07 04:40:00;;;;;;;27.02;24.42;;;;;;;;;;5030714;28;20035;-61
2023/04/07 04:42:26;;;;;;;27.10;24.50;;;;;;;;;;5030062;28;20394;-60
2023/04/07 04:44:52;;;;;;;29.15;26.15;;;;;;;;;;5029928;28;20025;-62
2023/04/07 04:47:19;;;;;;;26.60;24.10;;;;;;;;;;5030708;28;20025;-62
2023/04/07 04:49:45;;;;;;;26.92;24.33;;;;;;;;;;5031213;28;20049;-62
2023/04/07 04:52:11;;;;;;;28.42;25.73;;;;;;;;;;5030864;28;20036;-62
2023/04/07 04:54:37;;;;;;;27.42;24.73;;;;;;;;;;5030487;28;20021;-61
2023/04/07 04:57:03;;;;;;;27.27;24.67;;;;;;;;;;5030506;28;20030;-63
2023/04/07 04:59:29;;;;;;;33.28;29.77;;;;;;;;;;5030635;28;20111;-61
2023/04/07 05:01:55;;;;;;;29.15;26.25;;;;;;;;;;5030358;28;20084;-63
2023/04/07 05:04:21;;;;;;;28.30;25.67;;;;;;;;;;5012263;28;20132;-62
2023/04/07 05:06:47;;;;;;;27.90;25.30;;;;;;;;;;5030675;28;20037;-62
2023/04/07 05:09:13;;;;;;;29.02;26.13;;;;;;;;;;5029531;28;20103;-62
2023/04/07 05:11:40;;;;;;;26.83;24.15;;;;;;;;;;5029893;28;20026;-62
2023/04/07 05:14:06;;;;;;;26.63;24.02;;;;;;;;;;5029355;28;20049;-62
2023/04/07 05:16:32;;;;;;;26.90;24.20;;;;;;;;;;5030844;28;20095;-62
2023/04/07 05:18:58;;;;;;;27.73;24.92;;;;;;;;;;5012583;28;20116;-62
2023/04/07 05:21:25;;;;;;;26.27;23.77;;;;;;;;;;4996253;28;20072;-62
2023/04/07 05:23:51;;;;;;;27.38;24.00;;;;;;;;;;5029596;28;20025;-63
2023/04/07 05:26:17;;;;;;;26.90;24.30;;;;;;;;;;5030271;28;20117;-62
2023/04/07 05:28:43;;;;;;;27.02;24.42;;;;;;;;;;5030022;28;20030;-62
2023/04/07 05:31:09;;;;;;;26.48;23.77;;;;;;;;;;5048694;22;20053;-63
2023/04/07 05:33:35;;;;;;;27.63;24.92;;;;;;;;;;4979359;28;20037;-63
2023/04/07 05:36:01;;;;;;;31.05;27.95;;;;;;;;;;4972536;28;20027;-63
2023/04/07 05:38:27;;;;;;;26.38;23.75;;;;;;;;;;4977099;28;20033;-62
2023/04/07 05:40:53;;;;;;;26.35;23.85;;;;;;;;;;4955744;28;20027;-63
2023/04/07 05:43:19;;;;;;;27.33;24.73;;;;;;;;;;4971885;28;20069;-63
2023/04/07 05:45:45;;;;;;;25.75;23.33;;;;;;;;;;4984434;28;20034;-64
2023/04/07 05:48:11;;;;;;;27.65;24.92;;;;;;;;;;4978499;28;20042;-64
2023/04/07 05:50:37;;;;;;;26.48;23.98;;;;;;;;;;4955363;28;20034;-64
2023/04/07 05:53:03;;;;;;;26.50;23.90;;;;;;;;;;4963735;28;20022;-62
2023/04/07 05:55:30;;;;;;;28.38;25.65;;;;;;;;;;4992018;28;20022;-63
2023/04/07 05:57:56;;;;;;;26.80;24.20;;;;;;;;;;4974505;28;20121;-64
2023/04/07 06:00:22;;;;;;;30.88;27.75;;;;;;;;;;4991520;28;20088;-63
2023/04/07 06:02:48;;;;;;;27.85;25.35;;;;;;;;;;4995000;28;20030;-64
2023/04/07 06:05:14;;;;;;;26.98;24.48;;;;;;;;;;4977314;28;20041;-62
2023/04/07 06:07:40;;;;;;;27.02;24.42;;;;;;;;;;4964788;28;20031;-64
2023/04/07 06:10:06;;;;;;;26.25;23.65;;;;;;;;;;4959030;28;20399;-63
2023/04/07 06:12:32;;;;;;;27.25;24.77;;;;;;;;;;4975853;28;20464;-63
2023/04/07 06:14:58;;;;;;;28.60;25.90;;;;;;;;;;4957856;28;20402;-62
2023/04/07 06:17:24;;;;;;;26.55;24.02;;;;;;;;;;4962679;28;20101;-62
2023/04/07 06:19:50;;;;;;;26.35;23.85;;;;;;;;;;4994815;28;20050;-63
2023/04/07 06:22:16;;;;;;;26.85;24.25;;;;;;;;;;4986239;28;20153;-62
2023/04/07 06:24:42;;;;;;;28.17;25.45;;;;;;;;;;4975183;28;20019;-62
2023/04/07 06:27:08;;;;;;;28.88;25.98;;;;;;;;;;4958394;28;20407;-63
2023/04/07 06:29:35;;;;;;;27.33;24.63;;;;;;;;;;4959382;28;20027;-64
2023/04/07 06:32:01;;;;;;;28.95;26.33;;;;;;;;;;4977692;28;20031;-63
2023/04/07 06:34:27;;;;;;;27.52;24.92;;;;;;;;;;4959008;28;20483;-64
2023/04/07 06:36:53;;;;;;;27.40;24.73;;;;;;;;;;4988117;28;20037;-63
2023/04/07 06:39:20;;;;;;;27.60;25.10;;;;;;;;;;4995040;28;20041;-63
2023/04/07 06:41:46;;;;;;;26.48;23.92;;;;;;;;;;4977481;28;20030;-63
2023/04/07 06:44:12;;;;;;;27.05;24.45;;;;;;;;;;4994222;28;20566;-63
2023/04/07 06:46:38;;;;;;;25.85;23.45;;;;;;;;;;4994842;28;20034;-62
2023/04/07 06:49:04;;;;;;;26.92;24.40;;;;;;;;;;4993206;28;20037;-63
2023/04/07 06:51:31;;;;;;;28.00;25.42;;;;;;;;;;4984345;28;20031;-62
2023/04/07 06:53:57;;;;;;;27.95;25.27;;;;;;;;;;4984397;28;20101;-64
2023/04/07 06:56:23;;;;;;;27.17;24.52;;;;;;;;;;4994887;28;20046;-63
2023/04/07 06:58:49;;;;;;;26.83;24.13;;;;;;;;;;4994287;28;20489;-63
2023/04/07 07:01:16;;;;;;;25.90;23.50;;;;;;;;;;4977144;28;20038;-64
2023/04/07 07:03:42;;;;;;;26.77;24.27;;;;;;;;;;4993915;28;20053;-62
2023/04/07 07:06:08;;;;;;;26.73;24.23;;;;;;;;;;4984905;28;20153;-63
2023/04/07 07:08:34;;;;;;;26.75;24.20;;;;;;;;;;4958740;28;20126;-63
2023/04/07 07:11:00;;;;;;;27.83;25.33;;;;;;;;;;4974833;28;20019;-63
2023/04/07 07:13:26;;;;;;;26.35;23.88;;;;;;;;;;4974277;28;20033;-63
2023/04/07 07:15:52;;;;;;;26.63;24.13;;;;;;;;;;4975065;28;20022;-63
2023/04/07 07:18:18;;;;;;;26.35;23.85;;;;;;;;;;4958594;28;20086;-64
2023/04/07 07:20:45;;;;;;;27.05;24.50;;;;;;;;;;4982609;28;20083;-63
2023/04/07 07:23:11;;;;;;;26.95;24.42;;;;;;;;;;4982464;28;20102;-64
2023/04/07 07:25:37;;;;;;;26.52;23.92;;;;;;;;;;4976361;28;20026;-63
2023/04/07 07:28:03;;;;;;;26.40;23.90;;;;;;;;;;4991748;28;20034;-62
2023/04/07 07:30:29;;;;;;;26.02;23.52;;;;;;;;;;4993915;28;20034;-62
2023/04/07 07:32:55;;;;;;;25.08;22.73;;;;;;;;;;4993631;28;20026;-63
2023/04/07 07:35:21;;;;;;;25.08;22.67;;;;;;;;;;4969600;28;20019;-64
2023/04/07 07:37:47;;;;;;;24.77;22.38;;;;;;;;;;4956949;28;20450;-61
2023/04/07 07:40:14;;;;;;;24.55;22.17;;;;;;;;;;4957065;28;20027;-62
2023/04/07 07:42:40;;;;;;;23.95;21.55;;;;;;;;;;4974092;28;20062;-62
2023/04/07 07:45:06;;;;;;;24.88;22.30;;;;;;;;;;4956541;28;20054;-59
2023/04/07 07:47:33;;;;;;;24.17;21.77;;;;;;;;;;4957493;28;20084;-59
2023/04/07 07:49:59;;;;;;;23.55;21.25;;;;;;;;;;4979931;28;20392;-60
2023/04/07 07:52:25;;;;;;;23.45;21.05;;;;;;;;;;4985443;28;20073;-61
2023/04/07 07:54:52;;;;;;;22.83;20.42;;;;;;;;;;4973255;28;20027;-61
2023/04/07 07:57:18;;;;;;;23.30;20.95;;;;;;;;;;4956461;28;20030;-61
2023/04/07 07:59:45;;;;;;;21.27;19.13;;;;;;;;;;4956582;28;20042;-61
2023/04/07 08:02:11;;;;;;;22.45;20.05;;;;;;;;;;4956494;28;20508;-61
2023/04/07 08:04:37;;;;;;;20.85;18.65;;;;;;;;;;4978318;28;20038;-60
2023/04/07 08:07:03;;;;;;;21.63;19.42;;;;;;;;;;4991579;28;20027;-58
2023/04/07 08:09:31;;;;;;;21.92;19.63;;;;;;;;;;4992884;28;20558;-63
2023/04/07 08:11:58;;;;;;;21.67;19.48;;;;;;;;;;4975901;28;20074;-59
2023/04/07 08:14:24;;;;;;;21.90;19.52;;;;;;;;;;4992692;28;20423;-58
2023/04/07 08:16:50;;;;;;;21.60;19.10;;;;;;;;;;4992518;28;20036;-59
2023/04/07 08:19:17;;;;;;;21.65;19.35;;;;;;;;;;4985734;28;20375;-60
2023/04/07 08:21:43;;;;;;;22.40;19.40;;;;;;;;;;4976222;28;20023;-59
2023/04/07 08:24:09;;;;;;;22.38;19.98;;;;;;;;;;4979175;28;20023;-61
2023/04/07 08:26:35;;;;;;;25.25;20.08;;;;;;;;;;4973502;28;20058;-64
2023/04/07 08:29:01;;;;;;;22.35;19.98;;;;;;;;;;4973573;28;20478;-64
2023/04/07 08:31:27;;;;;;;22.27;19.88;;;;;;;;;;4974407;28;20027;-63
2023/04/07 08:33:56;;;;;;;22.92;20.55;;;;;;;;;;4973218;28;20073;-64
2023/04/07 08:36:23;;;;;;;22.40;20.10;;;;;;;;;;4957852;28;20026;-61
2023/04/07 08:38:49;;;;;;;21.60;19.30;;;;;;;;;;4977256;28;20034;-60
2023/04/07 08:41:20;;;;;;;21.88;19.58;;;;;;;;;;4994007;28;20031;-65
2023/04/07 08:43:48;;;;;;;21.30;19.10;;;;;;;;;;4992872;28;20041;-65
2023/04/07 08:46:14;;;;;;;21.50;19.30;;;;;;;;;;4973950;28;20034;-64
2023/04/07 08:48:43;;;;;;;22.17;19.88;;;;;;;;;;4975368;28;20296;-65
2023/04/07 08:51:11;;;;;;;21.88;19.58;;;;;;;;;;4975268;28;20090;-64
2023/04/07 08:53:49;;;;;;;21.83;19.52;;;;;;;;;;4965748;28;20030;-65
2023/04/07 08:56:16;;;;;;;21.13;18.92;;;;;;;;;;4964058;28;20344;-64
2023/04/07 08:58:43;;;;;;;21.25;18.95;;;;;;;;;;4960706;28;20488;-64
2023/04/07 09:01:10;;;;;;;19.92;17.83;;;;;;;;;;4963488;28;20055;-65
2023/04/07 09:03:36;;;;;;;20.55;18.35;;;;;;;;;;4968824;28;20154;-65
2023/04/07 09:06:02;;;;;;;22.20;18.65;;;;;;;;;;4972616;28;20045;-65
2023/04/07 09:08:29;;;;;;;22.50;20.00;;;;;;;;;;4977159;28;20069;-64
2023/04/07 09:10:56;;;;;;;21.50;19.17;;;;;;;;;;4955727;28;20054;-64
2023/04/07 09:13:24;;;;;;;20.80;18.60;;;;;;;;;;4972500;28;20369;-65
2023/04/07 09:15:50;;;;;;;20.80;18.15;;;;;;;;;;4972596;28;20023;-65
2023/04/07 09:18:16;;;;;;;21.33;18.70;;;;;;;;;;4974033;28;20035;-64
2023/04/07 09:20:58;;;;;;;20.05;17.95;;;;;;;;;;4972900;28;20031;-65
2023/04/07 09:23:31;;;;;;;20.02;17.67;;;;;;;;;;4962931;28;20499;-63
2023/04/07 09:25:58;;;;;;;20.10;17.90;;;;;;;;;;4975635;28;20046;-65
2023/04/07 09:28:25;;;;;;;20.03;17.87;;;;;;;;;;4955440;28;20023;-64
2023/04/07 09:30:54;;;;;;;21.08;18.80;;;;;;;;;;4973042;28;20765;-65
2023/04/07 09:33:29;;;;;;;21.10;17.80;;;;;;;;;;4972180;28;20039;-65
2023/04/07 09:35:56;;;;;;;19.83;17.70;;;;;;;;;;4955785;28;20158;-65
2023/04/07 09:38:22;;;;;;;19.67;17.58;;;;;;;;;;4976553;28;20179;-65
2023/04/07 09:40:48;;;;;;;19.65;17.55;;;;;;;;;;4976420;28;20034;-65
2023/04/07 09:43:16;;;;;;;19.73;17.63;;;;;;;;;;4957895;28;20034;-65
2023/04/07 09:45:42;;;;;;;21.00;18.08;;;;;;;;;;4976538;28;20463;-69
2023/04/07 09:48:19;;;;;;;19.33;16.98;;;;;;;;;;4976454;28;20123;-65
2023/04/07 09:50:48;;;;;;;19.45;17.35;;;;;;;;;;4976492;28;20031;-66
2023/04/07 09:53:15;;;;;;;20.13;17.92;;;;;;;;;;4958454;28;20019;-64
2023/04/07 09:55:42;;;;;;;20.80;18.50;;;;;;;;;;4976402;28;20101;-65
2023/04/07 09:58:08;;;;;;;20.00;17.90;;;;;;;;;;4959279;28;20118;-65
2023/04/07 10:00:35;;;;;;;22.50;18.83;;;;;;;;;;4959128;28;20031;-67
2023/04/07 10:03:03;;;;;;;21.08;18.88;;;;;;;;;;4958058;28;20023;-65
2023/04/07 10:05:29;;;;;;;21.88;19.58;;;;;;;;;;4959215;28;20165;-65
2023/04/07 10:07:55;;;;;;;21.40;18.42;;;;;;;;;;4976394;28;20069;-65
2023/04/07 10:10:21;;;;;;;19.95;17.50;;;;;;;;;;4976681;28;20550;-65
2023/04/07 10:12:49;;;;;;;19.42;17.33;;;;;;;;;;4976556;28;20128;-67
2023/04/07 10:15:15;;;;;;;20.08;17.85;;;;;;;;;;4957994;28;20033;-66
2023/04/07 10:17:46;;;;;;;20.27;17.85;;;;;;;;;;4958462;28;20027;-66
2023/04/07 10:20:13;;;;;;;19.83;17.73;;;;;;;;;;4975885;28;20023;-66
2023/04/07 10:22:40;;;;;;;20.70;18.50;;;;;;;;;;4958154;28;20027;-66
2023/04/07 10:25:09;;;;;;;21.13;18.83;;;;;;;;;;4975094;28;20034;-67
2023/04/07 10:27:41;;;;;;;19.17;17.17;;;;;;;;;;4975315;28;20022;-66
2023/04/07 10:30:13;;;;;;;20.50;17.27;;;;;;;;;;4975927;28;20675;-65
2023/04/07 10:32:46;;;;;;;19.92;16.63;;;;;;;;;;4954342;28;20046;-64
2023/04/07 10:35:12;;;;;;;19.27;15.93;;;;;;;;;;4983127;28;20022;-65
2023/04/07 10:37:38;;;;;;;20.98;16.33;;;;;;;;;;4973812;28;20023;-64
2023/04/07 10:40:16;;;;;;;18.50;16.50;;;;;;;;;;4958148;28;20368;-65
2023/04/07 10:42:42;;;;;;;19.23;16.55;;;;;;;;;;4976283;28;20034;-64
2023/04/07 10:45:09;;;;;;;17.75;15.70;;;;;;;;;;4975879;28;20490;-65
2023/04/07 10:47:55;;;;;;;19.13;15.88;;;;;;;;;;4975419;28;20058;-66
2023/04/07 10:50:22;;;;;;;18.60;15.98;;;;;;;;;;4975896;28;20046;-66
2023/04/07 10:52:49;;;;;;;18.77;16.10;;;;;;;;;;4957914;28;20629;-66
2023/04/07 10:55:30;;;;;;;19.23;14.95;;;;;;;;;;4974501;28;20472;-65
2023/04/07 10:58:15;;;;;;;17.40;14.43;;;;;;;;;;4975277;28;20367;-65
2023/04/07 11:00:41;;;;;;;17.38;13.70;;;;;;;;;;4975284;28;20114;-65
2023/04/07 11:03:14;;;;;;;16.80;13.23;;;;;;;;;;4956851;28;20097;-66
2023/04/07 11:05:41;;;;;;;17.90;13.57;;;;;;;;;;4975279;28;20098;-66
2023/04/07 11:08:07;;;;;;;16.60;13.18;;;;;;;;;;4974420;28;20110;-65
2023/04/07 11:10:36;;;;;;;17.00;12.90;;;;;;;;;;4974768;28;20019;-64
2023/04/07 11:13:22;;;;;;;17.48;13.50;;;;;;;;;;4956381;28;20050;-65
2023/04/07 11:15:52;;;;;;;17.50;12.77;;;;;;;;;;4974739;28;20027;-64
2023/04/07 11:18:20;;;;;;;17.23;12.85;;;;;;;;;;4974783;28;20487;-64
2023/04/07 11:20:53;;;;;;;16.48;12.70;;;;;;;;;;4974384;28;20052;-65
2023/04/07 11:23:20;;;;;;;16.30;12.65;;;;;;;;;;4976845;28;20050;-64
2023/04/07 11:25:47;;;;;;;16.35;12.05;;;;;;;;;;4993869;28;20023;-65
2023/04/07 11:28:14;;;;;;;16.45;12.23;;;;;;;;;;4993792;28;20030;-63
2023/04/07 11:30:48;;;;;;;16.17;11.85;;;;;;;;;;4994350;28;20483;-64
2023/04/07 11:33:16;;;;;;;16.58;12.07;;;;;;;;;;5047346;22;20536;-59
2023/04/07 11:35:49;;;;;;;16.02;11.63;;;;;;;;;;5031632;28;20053;-63
2023/04/07 11:38:15;;;;;;;16.05;11.50;;;;;;;;;;5023854;28;20425;-62
2023/04/07 11:40:41;;;;;;;16.70;11.93;;;;;;;;;;5031685;28;20061;-61
2023/04/07 11:43:17;;;;;;;16.30;11.35;;;;;;;;;;5030649;28;20416;-62
2023/04/07 11:45:43;;;;;;;16.52;10.88;;;;;;;;;;5028062;28;20022;-62
2023/04/07 11:48:25;;;;;;;16.10;11.13;;;;;;;;;;5028388;28;20040;-61
2023/04/07 11:50:51;;;;;;;15.93;11.18;;;;;;;;;;5031080;28;20029;-63
2023/04/07 11:53:27;;;;;;;16.55;11.00;;;;;;;;;;5030171;28;20036;-62
2023/04/07 11:56:00;;;;;;;16.02;10.65;;;;;;;;;;5034893;28;20077;-63
2023/04/07 11:58:26;;;;;;;23.75;16.73;;;;;;;;;;5035551;28;20022;-63
2023/04/07 12:00:56;;;;;;;15.90;10.80;;;;;;;;;;5030723;28;20021;-60
2023/04/07 12:03:23;;;;;;;17.08;10.80;;;;;;;;;;5030111;28;20031;-61
2023/04/07 12:05:49;;;;;;;15.73;10.13;;;;;;;;;;5030832;28;20111;-61
2023/04/07 12:08:15;;;;;;;15.25;10.10;;;;;;;;;;5031177;28;20084;-59
2023/04/07 12:10:41;;;;;;;14.93;9.55;;;;;;;;;;5030937;28;20018;-60
2023/04/07 12:13:08;;;;;;;14.80;9.38;;;;;;;;;;5029700;28;20069;-64
2023/04/07 12:15:35;;;;;;;14.95;9.40;;;;;;;;;;5030359;28;20067;-64
2023/04/07 12:18:02;;;;;;;17.23;9.77;;;;;;;;;;5030536;28;20076;-59
2023/04/07 12:20:28;;;;;;;15.02;9.10;;;;;;;;;;5030262;28;20040;-58
2023/04/07 12:22:54;;;;;;;15.65;9.50;;;;;;;;;;5030529;28;20516;-63
2023/04/07 12:25:20;;;;;;;15.45;9.95;;;;;;;;;;5029693;28;20089;-60
2023/04/07 12:27:46;;;;;;;14.70;9.20;;;;;;;;;;5028198;28;20105;-61
2023/04/07 12:30:12;;;;;;;15.98;9.80;;;;;;;;;;5030697;28;20030;-62
2023/04/07 12:32:39;;;;;;;15.27;9.45;;;;;;;;;;5030248;28;20112;-64
2023/04/07 12:35:05;;;;;;;15.32;9.70;;;;;;;;;;5029698;28;20104;-61
2023/04/07 12:37:32;;;;;;;17.33;10.25;;;;;;;;;;5030497;28;20081;-61
2023/04/07 12:39:58;;;;;;;16.63;10.45;;;;;;;;;;5030296;28;20116;-63
2023/04/07 12:42:25;;;;;;;16.60;10.40;;;;;;;;;;5012560;28;20025;-60
2023/04/07 12:44:51;;;;;;;16.98;10.65;;;;;;;;;;5029449;28;20101;-60
2023/04/07 12:47:17;;;;;;;18.50;11.75;;;;;;;;;;5030375;28;20112;-58
2023/04/07 12:49:43;;;;;;;16.95;10.32;;;;;;;;;;5012474;28;20094;-61
2023/04/07 12:52:09;;;;;;;15.98;10.02;;;;;;;;;;5030414;28;20034;-62
2023/04/07 12:54:35;;;;;;;16.55;10.48;;;;;;;;;;5029867;28;20022;-60
2023/04/07 12:57:01;;;;;;;15.82;10.15;;;;;;;;;;5031288;28;20040;-63
2023/04/07 12:59:28;;;;;;;17.85;11.63;;;;;;;;;;5030367;28;20067;-64
2023/04/07 13:01:54;;;;;;;15.98;10.10;;;;;;;;;;5030117;28;20389;-59
2023/04/07 13:04:21;;;;;;;16.13;10.15;;;;;;;;;;5029468;28;20026;-57
2023/04/07 13:06:46;;;;;;;16.90;11.13;;;;;;;;;;5030209;28;20025;-60
2023/04/07 13:09:12;;;;;;;15.80;9.80;;;;;;;;;;5030264;28;20032;-65
2023/04/07 13:11:38;;;;;;;15.60;9.57;;;;;;;;;;5036033;28;20552;-61
2023/04/07 13:14:06;;;;;;;16.30;9.77;;;;;;;;;;5018406;28;20060;-63
2023/04/07 13:16:33;;;;;;;16.02;9.95;;;;;;;;;;5019297;28;20434;-59
2023/04/07 13:18:59;;;;;;;16.10;9.88;;;;;;;;;;5031563;28;20290;-63
2023/04/07 13:21:26;;;;;;;15.88;10.00;;;;;;;;;;5010418;28;20508;-62
2023/04/07 13:23:52;;;;;;;15.35;9.85;;;;;;;;;;5035468;28;20025;-61
2023/04/07 13:26:18;;;;;;;16.58;9.63;;;;;;;;;;5024143;28;20075;-61
2023/04/07 13:28:44;;;;;;;16.65;9.10;;;;;;;;;;5036873;28;20390;-57
2023/04/07 13:31:14;;;;;;;15.30;9.10;;;;;;;;;;5036701;28;20022;-62
2023/04/07 13:33:40;;;;;;;15.77;9.55;;;;;;;;;;4681894;28;10000342;-61
2023/04/07 13:36:06;;;;;;;14.80;8.60;;;;;;;;;;5014806;28;20025;-60
2023/04/07 13:38:32;;;;;;;15.25;9.65;;;;;;;;;;5015803;28;20029;-60
2023/04/07 13:40:58;;;;;;;15.23;8.90;;;;;;;;;;5033318;28;20142;-61
2023/04/07 13:43:25;;;;;;;15.32;9.40;;;;;;;;;;5031481;28;20040;-60
2023/04/07 13:45:51;;;;;;;15.18;9.23;;;;;;;;;;5015994;28;20434;-60
2023/04/07 13:48:17;;;;;;;14.63;8.75;;;;;;;;;;5015759;28;20036;-60
2023/04/07 13:50:43;;;;;;;14.60;8.80;;;;;;;;;;5017841;28;20056;-64
2023/04/07 13:53:09;;;;;;;14.75;9.07;;;;;;;;;;5033051;28;20743;-60
2023/04/07 13:55:35;;;;;;;14.70;8.88;;;;;;;;;;5033696;28;20036;-58
2023/04/07 13:58:01;;;;;;;16.55;8.75;;;;;;;;;;5032392;28;20086;-61
2023/04/07 14:00:27;;;;;;;16.15;8.73;;;;;;;;;;5033273;28;20029;-61
2023/04/07 14:02:54;;;;;;;16.05;8.65;;;;;;;;;;5033424;28;20048;-63
2023/04/07 14:05:21;;;;;;;15.88;8.93;;;;;;;;;;5032633;28;20032;-61
2023/04/07 14:07:47;;;;;;;16.05;9.02;;;;;;;;;;5028065;28;20040;-59
2023/04/07 14:10:13;;;;;;;14.95;8.70;;;;;;;;;;5023812;28;20127;-62
2023/04/07 14:12:39;;;;;;;15.20;8.82;;;;;;;;;;5033028;28;20489;-62
2023/04/07 14:15:05;;;;;;;14.68;8.60;;;;;;;;;;5023826;28;20112;-62
2023/04/07 14:17:31;;;;;;;15.52;8.90;;;;;;;;;;5032176;28;20036;-60